CheckWX is a tool to help pilots better visualize weather data.  It is not intended as a substitute for an official pre-flight weather briefing.

22:59:33 UTC

SCGE METAR
María Dolores Airport
Los Angeles, Chile
Current

60 mins ago

SCGE 212200Z 00000KT CAVOK 20/14 Q1017
Observed
Apr-21 @ 22:00 UTC
Visibility
10,000+ meters
Flight Rules
VFR
Cloud Levels
  • Clear skies
Temperature
20°C / 68°F
Dewpoint
14°C / 57°F
Humidity
69%
Altimeter
30.03" Hg
Pressure
1016.92 hPa
Previous

2 hours ago

SCGE 212100Z 18003KT 9999 FEW030 22/09 Q1017
Observed
Apr-21 @ 21:00 UTC
Wind
  • 180° at 3 KTS
Visibility
10,000+ meters
Flight Rules
VFR
Cloud Levels
  • Few at 3,000' AGL
Temperature
22°C / 72°F
Dewpoint
C / 48°F
Humidity
44%
Altimeter
30.03" Hg
Pressure
1016.92 hPa
Previous

3 hours ago

SCGE 212000Z 18003KT CAVOK 20/09 Q1018
Observed
Apr-21 @ 20:00 UTC
Wind
  • 180° at 3 KTS
Visibility
10,000+ meters
Flight Rules
VFR
Cloud Levels
  • Clear skies
Temperature
20°C / 68°F
Dewpoint
C / 48°F
Humidity
49%
Altimeter
30.06" Hg
Pressure
1017.92 hPa